Aviation Digital Data Service (ADDS)

Output produced by METARs form (0645 UTC 18 December 2017)
found at http://aviationweather.gov/adds/metars/
 
KGSO 180619Z 1806/1906 VRB02KT P6SM SCT040 OVC080 
     TEMPO 1806/1809 BKN020 
     FM181000 00000KT P6SM BKN250 
     FM181800 25006KT P6SM FEW250 
     FM190000 00000KT P6SM FEW250